Time;durP1;ratioP1;P1;durP2;ratioP2;P2;SDS_P1;SDS_P2;PMS_P1;PMS_P2;Temp;Humidity;BMP_temperature;BMP_pressure;BME280_temperature;BME280_humidity;BME280_pressure;Samples;Min_cycle;Max_cycle;Signal;HPM_P1;HPM_P2
2022/12/21 00:02:04;;;;;;;17.57;5.53;;;;;;;-5.38;66.99;102569.66;1949246;73;21131;-61
2022/12/21 00:04:33;;;;;;;25.55;8.43;;;;;;;-5.38;66.99;102569.66;1954079;73;21041;-61
2022/12/21 00:07:01;;;;;;;12.93;6.20;;;;;;;-5.30;67.34;102570.08;1933194;73;21057;-61
2022/12/21 00:09:30;;;;;;;23.52;7.30;;;;;;;-5.30;67.34;102570.08;1922545;73;21144;-60
2022/12/21 00:11:59;;;;;;;29.52;10.48;;;;;;;-5.29;67.53;102562.88;1939405;73;21122;-59
2022/12/21 00:14:30;;;;;;;25.85;9.68;;;;;;;-5.35;67.87;102566.37;1920460;75;21033;-64
2022/12/21 00:17:03;;;;;;;23.60;7.33;;;;;;;-5.44;68.35;102565.08;1947762;73;21045;-61
2022/12/21 00:19:35;;;;;;;10.65;3.98;;;;;;;-5.42;68.23;102572.87;1954785;73;21479;-61
2022/12/21 00:22:03;;;;;;;20.20;6.17;;;;;;;-5.37;68.04;102584.66;1954598;73;21056;-60
2022/12/21 00:24:33;;;;;;;12.95;6.25;;;;;;;-5.34;67.83;102571.59;1956351;72;21162;-62
2022/12/21 00:27:02;;;;;;;6.15;2.90;;;;;;;-5.31;67.68;102569.58;1944443;73;21036;-59
2022/12/21 00:29:31;;;;;;;23.87;8.70;;;;;;;-5.27;67.55;102566.00;1940631;73;21608;-61
2022/12/21 00:31:59;;;;;;;24.80;8.85;;;;;;;-5.27;67.55;102566.00;1954433;73;21016;-58
2022/12/21 00:34:28;;;;;;;10.93;5.45;;;;;;;-5.25;67.65;102563.52;1957776;72;21024;-55
2022/12/21 00:36:58;;;;;;;17.62;7.25;;;;;;;-5.26;68.02;102561.36;1935621;73;21001;-54
2022/12/21 00:39:28;;;;;;;8.43;4.92;;;;;;;-5.30;67.85;102552.98;1919976;75;21048;-57
2022/12/21 00:41:57;;;;;;;20.02;6.97;;;;;;;-5.32;67.78;102553.70;1920467;75;21061;-57
2022/12/21 00:44:26;;;;;;;7.05;2.42;;;;;;;-5.37;67.94;102553.84;1920446;75;21076;-55
2022/12/21 00:46:54;;;;;;;10.05;5.08;;;;;;;-5.44;67.87;102544.53;1920429;75;21041;-55
2022/12/21 00:49:23;;;;;;;21.12;5.90;;;;;;;-5.44;67.87;102544.53;1920432;75;21603;-54
2022/12/21 00:51:52;;;;;;;16.60;6.70;;;;;;;-5.41;68.23;102540.37;1920413;75;21093;-54
2022/12/21 00:54:21;;;;;;;10.98;4.85;;;;;;;-5.40;68.21;102537.89;1920382;75;21056;-55
2022/12/21 00:56:52;;;;;;;13.53;4.83;;;;;;;-5.38;68.09;102530.28;1920236;75;21149;-57
2022/12/21 00:59:21;;;;;;;10.60;5.37;;;;;;;-5.38;67.99;102525.14;1920455;75;21474;-54
2022/12/21 01:01:49;;;;;;;19.32;8.53;;;;;;;-5.39;68.36;102518.22;1914593;74;21065;-52
2022/12/21 01:04:31;;;;;;;18.15;6.65;;;;;;;-5.39;68.36;102518.22;1891330;74;21464;-54
2022/12/21 01:06:59;;;;;;;12.35;6.25;;;;;;;-5.41;68.21;102518.55;1976135;71;21483;-55
2022/12/21 01:09:28;;;;;;;15.68;6.47;;;;;;;-5.45;68.44;102510.66;1975182;72;21560;-51
2022/12/21 01:11:57;;;;;;;20.20;8.80;;;;;;;-5.45;68.42;102497.83;1975280;73;21121;-51
2022/12/21 01:14:25;;;;;;;8.13;3.33;;;;;;;-5.41;68.47;102495.03;1975150;73;21044;-50
2022/12/21 01:16:54;;;;;;;21.95;9.03;;;;;;;-5.34;68.32;102501.39;1964133;73;21122;-48
2022/12/21 01:19:24;;;;;;;27.48;8.80;;;;;;;-5.30;68.25;102493.05;1963079;73;21099;-53
2022/12/21 01:21:53;;;;;;;7.87;3.67;;;;;;;-5.23;68.16;102490.02;1968556;71;21095;-55
2022/12/21 01:24:22;;;;;;;17.07;7.42;;;;;;;-5.18;68.08;102481.25;1992222;71;21104;-51
2022/12/21 01:26:50;;;;;;;11.73;5.65;;;;;;;-5.12;67.99;102471.33;1939388;74;21070;-53
2022/12/21 01:29:19;;;;;;;21.65;8.28;;;;;;;-5.13;67.98;102471.70;1939365;74;21108;-52
2022/12/21 01:31:48;;;;;;;14.73;5.35;;;;;;;-5.09;68.09;102483.02;1930330;74;21016;-53
2022/12/21 01:34:17;;;;;;;18.00;7.80;;;;;;;-5.08;68.32;102481.83;1931103;73;21042;-52
2022/12/21 01:36:47;;;;;;;12.75;6.80;;;;;;;-5.01;68.23;102483.05;1906596;73;21124;-53
2022/12/21 01:39:16;;;;;;;18.92;7.05;;;;;;;-4.99;68.63;102462.58;1902380;75;21048;-53
2022/12/21 01:41:44;;;;;;;12.43;6.12;;;;;;;-4.90;68.47;102460.48;1902183;75;21032;-51
2022/12/21 01:44:45;;;;;;;9.05;5.17;;;;;;;-4.83;68.51;102461.28;1902354;75;21056;-52
2022/12/21 01:47:16;;;;;;;13.40;6.78;;;;;;;-4.79;68.52;102465.77;1900084;75;21568;-53
2022/12/21 01:49:47;;;;;;;16.52;4.75;;;;;;;-4.74;68.58;102455.33;1902199;74;21067;-54
2022/12/21 01:52:16;;;;;;;18.55;6.70;;;;;;;-4.62;68.66;102461.90;1868310;77;21178;-54
2022/12/21 01:54:52;;;;;;;20.60;6.37;;;;;;;-4.38;67.97;102466.98;1896093;75;21051;-54
2022/12/21 01:57:21;;;;;;;12.05;7.00;;;;;;;-4.38;67.97;102466.98;1907213;74;21062;-53
2022/12/21 01:59:58;;;;;;;20.65;8.90;;;;;;;-4.23;68.14;102456.56;1922728;74;21109;-54
2022/12/21 02:02:36;;;;;;;18.62;5.87;;;;;;;-4.08;67.93;102462.47;1898658;75;21086;-54
2022/12/21 02:05:26;;;;;;;28.95;9.68;;;;;;;-4.03;67.83;102453.67;1934000;74;21016;-58
2022/12/21 02:07:58;;;;;;;6.72;5.10;;;;;;;-3.98;67.80;102462.50;1919598;75;21093;-57
2022/12/21 02:10:27;;;;;;;14.38;6.60;;;;;;;-3.99;67.88;102463.30;1919692;75;21061;-56
2022/12/21 02:13:00;;;;;;;23.38;7.22;;;;;;;-3.89;67.75;102462.08;1919665;75;21032;-57
2022/12/21 02:15:41;;;;;;;13.32;6.97;;;;;;;-3.77;67.26;102461.34;1919635;75;21087;-58
2022/12/21 02:18:31;;;;;;;9.53;4.35;;;;;;;-3.77;67.26;102461.34;1853755;76;21080;-57
2022/12/21 02:21:09;;;;;;;19.17;7.40;;;;;;;-3.63;67.40;102473.59;1886702;76;21563;-57
2022/12/21 02:23:49;;;;;;;26.05;10.03;;;;;;;-3.57;67.22;102462.28;1914072;73;21117;-59
2022/12/21 02:26:48;;;;;;;21.87;8.88;;;;;;;-3.51;67.15;102457.41;1892698;75;21067;-58
2022/12/21 02:29:29;;;;;;;16.73;7.17;;;;;;;-3.48;67.27;102455.81;1905700;74;21009;-57
2022/12/21 02:32:23;;;;;;;28.38;9.58;;;;;;;-3.36;67.24;102464.08;1889592;75;21035;-56
2022/12/21 02:35:20;;;;;;;36.03;7.83;;;;;;;-3.36;67.24;102464.08;1886737;76;21240;-56
2022/12/21 02:38:06;;;;;;;27.15;10.13;;;;;;;-3.30;67.10;102456.66;1886708;76;21053;-57
2022/12/21 02:40:53;;;;;;;9.63;4.62;;;;;;;-3.28;67.21;102456.31;1844955;76;21047;-57
2022/12/21 02:46:13;;;;;;;17.50;8.00;;;;;;;-3.37;67.59;102443.02;1853536;77;21487;-56
2022/12/21 02:48:51;;;;;;;10.38;4.22;;;;;;;-3.37;67.59;102443.02;1872600;76;21079;-57
2022/12/21 02:51:34;;;;;;;15.15;4.67;;;;;;;-3.38;67.72;102444.69;1882512;76;21055;-56
2022/12/21 02:54:04;;;;;;;15.93;5.33;;;;;;;-3.38;67.72;102444.69;1886634;76;21045;-58
2022/12/21 02:56:32;;;;;;;20.15;7.70;;;;;;;-3.35;67.69;102438.81;1872572;76;21103;-56
2022/12/21 02:59:03;;;;;;;19.23;8.23;;;;;;;-3.41;68.00;102430.41;1886691;76;21094;-57
2022/12/21 03:01:37;;;;;;;27.27;8.55;;;;;;;-3.37;68.04;102446.87;1886655;76;21119;-57
2022/12/21 03:04:42;;;;;;;17.87;6.10;;;;;;;-3.28;67.92;102447.30;1891621;75;21103;-54
2022/12/21 03:07:30;;;;;;;20.27;6.42;;;;;;;-3.20;67.86;102435.62;1884900;76;21102;-57
2022/12/21 03:10:17;;;;;;;24.63;8.65;;;;;;;-3.07;67.63;102440.05;1884829;76;21152;-57
2022/12/21 03:13:18;;;;;;;22.35;8.33;;;;;;;-3.03;67.45;102441.52;1883360;76;21047;-58
2022/12/21 03:15:55;;;;;;;19.50;7.12;;;;;;;-2.93;67.42;102447.98;1884834;76;21494;-55
2022/12/21 03:18:30;;;;;;;27.50;9.53;;;;;;;-2.86;67.35;102437.09;1917645;75;21032;-57
2022/12/21 03:21:03;;;;;;;23.77;9.30;;;;;;;-2.80;67.37;102432.64;1907675;73;21064;-54
2022/12/21 03:23:36;;;;;;;21.90;9.78;;;;;;;-2.73;67.39;102436.83;1887249;75;21134;-57
2022/12/21 03:26:11;;;;;;;20.68;8.05;;;;;;;-2.68;67.39;102433.55;1886676;76;21009;-56
2022/12/21 03:28:43;;;;;;;22.70;8.23;;;;;;;-2.63;67.38;102438.51;1901522;73;21068;-59
2022/12/21 03:31:14;;;;;;;18.02;7.08;;;;;;;-2.57;67.34;102437.47;1911533;74;21076;-57
2022/12/21 03:33:46;;;;;;;29.30;7.92;;;;;;;-2.54;67.40;102432.45;1886893;75;21181;-57
2022/12/21 03:36:17;;;;;;;25.00;8.45;;;;;;;-2.47;67.34;102425.44;1895871;75;21076;-56
2022/12/21 03:39:01;;;;;;;14.20;5.85;;;;;;;-2.42;67.32;102430.36;1853287;77;21128;-56
2022/12/21 03:41:35;;;;;;;19.23;8.80;;;;;;;-2.37;67.18;102428.85;1859437;76;21021;-57
2022/12/21 03:44:07;;;;;;;29.65;8.95;;;;;;;-2.34;67.14;102426.41;1900875;75;21051;-59
2022/12/21 03:46:44;;;;;;;17.82;7.58;;;;;;;-2.28;67.20;102423.20;1895910;75;21465;-58
2022/12/21 03:49:22;;;;;;;13.93;6.80;;;;;;;-2.27;67.21;102430.09;1876807;76;21164;-59
2022/12/21 03:51:57;;;;;;;21.97;8.58;;;;;;;-2.23;67.24;102431.11;1886390;76;21076;-59
2022/12/21 03:54:51;;;;;;;20.08;7.05;;;;;;;-2.19;67.16;102424.86;1919302;74;21017;-58
2022/12/21 03:57:20;;;;;;;;;;;;;;;-2.12;67.11;102427.67;1922277;75;21098;-59
2022/12/21 03:59:52;;;;;;;25.62;8.88;;;;;;;-2.07;67.02;102418.42;1919423;75;20385;-58
2022/12/21 04:02:23;;;;;;;25.35;9.43;;;;;;;-2.06;66.97;102430.10;1916928;75;21092;-58
2022/12/21 04:05:18;;;;;;;17.20;6.47;;;;;;;-2.03;66.95;102426.37;1919415;74;21118;-57
2022/12/21 04:07:49;;;;;;;24.45;8.60;;;;;;;-1.99;66.95;102426.95;1876915;74;21125;-56
2022/12/21 04:10:21;;;;;;;20.95;8.43;;;;;;;-1.97;67.05;102425.30;1901274;74;21014;-57
2022/12/21 04:12:50;;;;;;;22.82;7.53;;;;;;;-1.93;67.22;102421.56;1909919;74;21032;-57
2022/12/21 04:15:21;;;;;;;15.23;7.33;;;;;;;-1.87;67.13;102426.95;1924613;74;21042;-57
2022/12/21 04:17:53;;;;;;;22.80;8.30;;;;;;;-1.83;67.07;102419.80;1929892;74;21104;-57
2022/12/21 04:20:23;;;;;;;50.40;10.30;;;;;;;-1.82;67.22;102418.98;1902818;74;21011;-59
2022/12/21 04:28:31;;;;;;;23.27;7.67;;;;;;;-1.70;67.28;102414.69;1848147;77;21059;-56
2022/12/21 04:31:01;;;;;;;13.38;6.15;;;;;;;-1.66;67.22;102408.42;1862406;75;21019;-56
2022/12/21 04:33:31;;;;;;;26.42;10.03;;;;;;;-1.60;67.15;102418.98;1874395;75;21071;-57
2022/12/21 04:38:46;;;;;;;21.23;8.43;;;;;;;-1.47;67.20;102419.45;1894523;76;21024;-58
2022/12/21 04:41:20;;;;;;;24.05;9.93;;;;;;;-1.42;67.05;102417.89;1894495;76;21044;-58
2022/12/21 04:43:45;;;;;;;15.03;6.62;;;;;;;-1.40;67.08;102425.32;1895025;74;21063;-58
2022/12/21 04:46:15;;;;;;;36.55;9.73;;;;;;;-1.38;67.12;102412.05;1894381;76;21094;-58
2022/12/21 04:48:46;;;;;;;26.23;10.78;;;;;;;-1.34;67.13;102420.37;1894600;76;21051;-58
2022/12/21 04:51:20;;;;;;;22.95;10.10;;;;;;;-1.30;67.21;102414.91;1894500;76;21518;-57
2022/12/21 04:53:49;;;;;;;21.60;7.87;;;;;;;-1.23;67.28;102430.69;1896676;74;21601;-58
2022/12/21 04:56:19;;;;;;;29.90;10.90;;;;;;;-1.19;67.19;102422.63;1894512;76;21478;-58
2022/12/21 04:58:47;;;;;;;25.60;10.50;;;;;;;-1.14;67.17;102429.24;1894468;76;21912;-58
2022/12/21 05:01:19;;;;;;;24.47;10.53;;;;;;;-1.11;67.27;102432.82;1894592;76;21122;-56
2022/12/21 05:03:48;;;;;;;23.92;8.80;;;;;;;-1.08;67.33;102426.90;1895380;74;21545;-57
2022/12/21 05:06:20;;;;;;;24.60;7.90;;;;;;;-1.06;67.42;102420.08;1894617;76;21138;-57
2022/12/21 05:08:48;;;;;;;20.52;8.33;;;;;;;-1.06;67.51;102426.12;1878919;76;21084;-57
2022/12/21 05:11:20;;;;;;;18.70;7.60;;;;;;;-1.06;67.60;102423.95;1886830;76;21126;-56
2022/12/21 05:13:50;;;;;;;24.37;7.92;;;;;;;-1.05;67.70;102429.57;1886520;76;21130;-56
2022/12/21 05:16:21;;;;;;;26.70;8.93;;;;;;;-1.01;67.79;102430.17;1886998;76;21487;-57
2022/12/21 05:18:52;;;;;;;21.80;7.95;;;;;;;-1.00;67.79;102422.87;1886871;76;21159;-57
2022/12/21 05:21:21;;;;;;;16.87;7.62;;;;;;;-0.97;67.79;102416.52;1886892;76;21040;-56
2022/12/21 05:23:50;;;;;;;19.50;7.67;;;;;;;-0.93;67.84;102412.34;1886703;76;21123;-56
2022/12/21 05:26:19;;;;;;;18.35;8.65;;;;;;;-0.87;67.84;102409.53;1890928;75;21034;-56
2022/12/21 05:28:48;;;;;;;22.60;7.28;;;;;;;-0.81;67.83;102414.94;1923898;74;21036;-49
2022/12/21 05:31:18;;;;;;;18.62;6.87;;;;;;;-0.78;67.97;102418.91;1889294;76;21021;-52
2022/12/21 05:33:47;;;;;;;19.15;6.42;;;;;;;-0.73;68.00;102417.78;1848337;78;21042;-53
2022/12/21 05:36:17;;;;;;;15.55;5.75;;;;;;;-0.70;68.09;102419.59;1853313;77;21053;-49
2022/12/21 05:38:46;;;;;;;21.95;7.45;;;;;;;-0.67;68.24;102419.70;1853380;77;21065;-54
2022/12/21 05:41:17;;;;;;;19.32;7.08;;;;;;;-0.61;68.19;102423.78;1859722;75;21210;-56
2022/12/21 05:43:45;;;;;;;26.60;6.37;;;;;;;-0.58;68.20;102420.02;1919759;75;21486;-55
2022/12/21 05:46:15;;;;;;;19.65;8.48;;;;;;;-0.49;68.20;102418.16;1919775;75;21087;-55
2022/12/21 05:48:43;;;;;;;26.68;8.43;;;;;;;-0.41;68.14;102427.95;1919602;75;21455;-55
2022/12/21 05:51:14;;;;;;;24.77;8.88;;;;;;;-0.33;68.09;102428.58;1919746;75;21009;-54
2022/12/21 05:53:45;;;;;;;25.77;8.03;;;;;;;-0.23;68.00;102428.06;1890189;74;21052;-55
2022/12/21 05:56:13;;;;;;;20.65;7.65;;;;;;;-0.14;67.91;102432.25;1890540;76;21118;-55
2022/12/21 05:58:42;;;;;;;21.85;9.93;;;;;;;-0.06;67.84;102431.19;1886709;76;21056;-55
2022/12/21 06:01:12;;;;;;;34.63;8.80;;;;;;;0.05;67.81;102422.47;1853286;77;21053;-56
2022/12/21 06:03:42;;;;;;;27.82;8.83;;;;;;;0.13;67.64;102427.07;1896171;75;21043;-55
2022/12/21 06:06:14;;;;;;;30.08;9.80;;;;;;;0.21;67.49;102427.30;1919911;75;21043;-48
2022/12/21 06:08:43;;;;;;;24.10;8.75;;;;;;;0.27;67.42;102426.18;1919253;74;21068;-47
2022/12/21 06:11:14;;;;;;;24.18;9.63;;;;;;;0.32;67.33;102422.02;1950175;73;21075;-59
2022/12/21 06:13:44;;;;;;;19.73;8.48;;;;;;;0.39;67.31;102425.69;1922898;73;21066;-62
2022/12/21 06:16:16;;;;;;;34.35;8.38;;;;;;;0.46;67.34;102426.73;1886426;76;21124;-58
2022/12/21 06:18:46;;;;;;;40.05;9.08;;;;;;;0.50;67.27;102425.59;1886391;76;21050;-51
2022/12/21 06:21:19;;;;;;;27.20;8.23;;;;;;;0.55;67.27;102424.41;1886428;76;21482;-58
2022/12/21 06:23:48;;;;;;;35.68;8.60;;;;;;;0.61;67.32;102425.00;1888818;75;21131;-57
2022/12/21 06:26:19;;;;;;;22.45;8.28;;;;;;;0.67;67.40;102420.02;1886254;76;21571;-47
2022/12/21 06:28:52;;;;;;;22.62;7.08;;;;;;;0.73;67.41;102421.05;1885732;76;21075;-55
2022/12/21 06:31:22;;;;;;;27.10;9.23;;;;;;;0.83;67.35;102423.91;1893436;75;21036;-57
2022/12/21 06:33:51;;;;;;;27.32;9.83;;;;;;;0.87;67.30;102421.45;1919390;75;21109;-57
2022/12/21 06:36:21;;;;;;;27.07;6.78;;;;;;;0.91;67.33;102423.30;1911487;73;21608;-58
2022/12/21 06:38:50;;;;;;;31.07;9.13;;;;;;;0.95;67.27;102419.94;1919223;75;21183;-55
2022/12/21 06:41:20;;;;;;;18.23;6.35;;;;;;;0.97;67.23;102421.28;1917012;75;21109;-56
2022/12/21 06:43:50;;;;;;;21.60;9.00;;;;;;;0.99;67.23;102422.63;1919356;75;21459;-56
2022/12/21 06:46:19;;;;;;;22.62;8.30;;;;;;;0.97;67.25;102416.09;1919412;75;21035;-56
2022/12/21 06:48:49;;;;;;;27.50;10.20;;;;;;;0.95;67.33;102420.37;1919374;75;21426;-56
2022/12/21 06:51:20;;;;;;;41.73;9.88;;;;;;;0.96;67.49;102431.22;1919250;75;21059;-56
2022/12/21 06:53:50;;;;;;;23.87;8.68;;;;;;;0.98;67.53;102429.55;1916967;75;21551;-56
2022/12/21 06:56:25;;;;;;;16.62;7.12;;;;;;;1.04;67.58;102419.33;1919288;75;21011;-56
2022/12/21 06:58:55;;;;;;;14.60;8.28;;;;;;;1.11;67.61;102419.95;1919390;75;21007;-57
2022/12/21 07:01:34;;;;;;;17.98;8.23;;;;;;;1.22;67.45;102420.24;1919334;75;21112;-56
2022/12/21 07:04:01;;;;;;;20.32;8.33;;;;;;;1.27;67.49;102417.75;1896864;75;21117;-57
2022/12/21 07:06:33;;;;;;;17.82;8.65;;;;;;;1.34;67.51;102415.35;1886383;76;21063;-56
2022/12/21 07:09:01;;;;;;;19.48;8.00;;;;;;;1.45;67.42;102414.77;1889370;75;21544;-56
2022/12/21 07:11:31;;;;;;;18.00;7.25;;;;;;;1.54;67.31;102412.40;1902029;75;21108;-57
2022/12/21 07:14:00;;;;;;;17.37;6.28;;;;;;;1.61;67.18;102423.40;1917834;73;21031;-57
2022/12/21 07:16:29;;;;;;;19.98;7.85;;;;;;;1.65;67.09;102423.05;1935498;74;21125;-57
2022/12/21 07:18:58;;;;;;;14.63;7.20;;;;;;;1.64;67.11;102421.28;1935459;74;21132;-56
2022/12/21 07:21:26;;;;;;;16.97;7.53;;;;;;;1.65;67.10;102423.92;1935439;74;21059;-56
2022/12/21 07:23:55;;;;;;;21.85;8.48;;;;;;;1.66;67.09;102417.00;1932988;74;21094;-56
2022/12/21 07:26:24;;;;;;;30.43;10.13;;;;;;;1.67;67.12;102422.67;1935499;74;21038;-56
2022/12/21 07:28:55;;;;;;;21.20;9.65;;;;;;;1.68;67.27;102420.55;1935325;74;21117;-57
2022/12/21 07:31:27;;;;;;;28.67;8.78;;;;;;;1.71;67.26;102421.47;1935447;74;21035;-56
2022/12/21 07:33:57;;;;;;;18.30;6.25;;;;;;;1.81;67.28;102434.28;1933669;74;21090;-57
2022/12/21 07:36:26;;;;;;;24.52;8.78;;;;;;;1.89;67.24;102415.84;1901907;75;21046;-56
2022/12/21 07:38:54;;;;;;;21.10;6.97;;;;;;;1.99;67.19;102421.26;1902161;75;21022;-57
2022/12/21 07:41:24;;;;;;;18.87;8.25;;;;;;;2.10;67.16;102422.38;1901951;75;21050;-56
2022/12/21 07:43:52;;;;;;;26.48;9.43;;;;;;;2.17;67.13;102416.48;1902155;75;21473;-56
2022/12/21 07:46:39;;;;;;;25.48;8.70;;;;;;;2.25;67.09;102411.05;1904731;74;21119;-56
2022/12/21 07:49:09;;;;;;;24.27;8.65;;;;;;;2.33;67.03;102413.81;1901886;75;21163;-58
2022/12/21 07:51:38;;;;;;;33.38;10.30;;;;;;;2.38;67.18;102407.40;1901944;75;21046;-58
2022/12/21 07:54:07;;;;;;;28.25;9.78;;;;;;;2.48;67.10;102409.36;1902110;75;21112;-57
2022/12/21 07:56:35;;;;;;;25.00;8.43;;;;;;;2.59;67.09;102400.06;1904210;74;21129;-57
2022/12/21 07:59:04;;;;;;;23.32;8.53;;;;;;;2.70;66.99;102403.75;1902130;75;21046;-57
2022/12/21 08:01:33;;;;;;;27.52;8.83;;;;;;;2.84;66.85;102401.44;1902000;75;21046;-54
2022/12/21 08:04:02;;;;;;;29.95;8.38;;;;;;;2.95;66.71;102400.35;1901951;75;21066;-56
2022/12/21 08:06:30;;;;;;;26.20;10.10;;;;;;;3.05;66.67;102399.66;1905020;73;21042;-56
2022/12/21 08:08:59;;;;;;;24.75;9.03;;;;;;;3.17;66.54;102394.22;1902063;75;21104;-55
2022/12/21 08:11:29;;;;;;;78.55;25.08;;;;;;;3.27;66.41;102393.55;1909523;75;21071;-56
2022/12/21 08:13:58;;;;;;;171.55;50.95;;;;;;;3.37;66.38;102398.05;1910496;75;21110;-57
2022/12/21 08:16:27;;;;;;;51.33;19.35;;;;;;;3.45;66.38;102391.27;1900364;73;21019;-53
2022/12/21 08:18:57;;;;;;;56.23;17.10;;;;;;;3.47;66.32;102392.16;1909956;75;21599;-57
2022/12/21 08:21:26;;;;;;;30.77;12.50;;;;;;;3.45;66.47;102386.05;1915992;75;21188;-55
2022/12/21 08:23:54;;;;;;;42.08;13.93;;;;;;;3.48;66.54;102385.22;1886279;76;21117;-53
2022/12/21 08:26:23;;;;;;;35.65;12.73;;;;;;;3.53;66.55;102387.91;1886111;76;21129;-48
2022/12/21 08:28:52;;;;;;;48.85;13.75;;;;;;;3.59;66.65;102382.80;1886155;76;21034;-53
2022/12/21 08:31:21;;;;;;;49.15;15.15;;;;;;;3.63;66.55;102381.98;1886069;76;21011;-55
2022/12/21 08:33:49;;;;;;;31.33;11.88;;;;;;;3.67;66.52;102382.48;1891691;75;21211;-55
2022/12/21 08:36:23;;;;;;;32.03;11.75;;;;;;;3.71;66.51;102376.48;1917221;75;21110;-57
2022/12/21 08:38:53;;;;;;;43.70;14.05;;;;;;;3.74;66.47;102376.52;1922503;73;21024;-57
2022/12/21 08:41:22;;;;;;;41.58;13.40;;;;;;;3.74;66.47;102375.21;1953239;73;21524;-53
2022/12/21 08:43:51;;;;;;;42.55;14.18;;;;;;;3.78;66.52;102379.64;1953073;73;21118;-56
2022/12/21 08:46:20;;;;;;;45.70;15.45;;;;;;;3.84;66.51;102369.30;1953257;73;21047;-54
2022/12/21 08:48:51;;;;;;;40.03;14.98;;;;;;;3.96;66.41;102371.63;1953239;73;21028;-57
2022/12/21 08:51:20;;;;;;;54.25;17.12;;;;;;;4.08;66.49;102357.48;1953232;73;21123;-58
2022/12/21 08:53:55;;;;;;;39.83;14.53;;;;;;;4.21;66.53;102354.17;1932359;73;21131;-56
2022/12/21 08:56:23;;;;;;;35.43;13.15;;;;;;;4.37;66.46;102353.06;1884322;76;21084;-57
2022/12/21 08:58:52;;;;;;;33.95;12.00;;;;;;;4.56;66.15;102347.66;1886179;76;21552;-55
2022/12/21 09:01:22;;;;;;;40.70;14.07;;;;;;;4.73;65.77;102347.84;1894493;73;21041;-52
2022/12/21 09:03:51;;;;;;;39.65;13.10;;;;;;;4.95;65.42;102349.81;1922249;74;21039;-56
2022/12/21 09:06:20;;;;;;;34.90;11.43;;;;;;;5.26;64.95;102339.66;1927143;74;21039;-56
2022/12/21 09:08:48;;;;;;;22.40;10.25;;;;;;;5.72;63.94;102333.92;1921653;74;21093;-59
2022/12/21 09:11:24;;;;;;;56.53;19.10;;;;;;;6.56;62.50;102321.25;1916332;74;21208;-57
2022/12/21 09:13:49;;;;;;;42.53;16.23;;;;;;;7.54;60.58;102317.87;1912243;75;21470;-54
2022/12/21 09:16:21;;;;;;;42.98;15.95;;;;;;;9.44;57.68;102322.17;1913774;75;21114;-56
2022/12/21 09:18:50;;;;;;;30.20;12.45;;;;;;;11.18;55.01;102314.77;1913644;75;21063;-56
2022/12/21 09:21:22;;;;;;;27.22;12.15;;;;;;;11.22;54.52;102319.09;1914902;75;21028;-56
2022/12/21 09:23:51;;;;;;;27.00;10.90;;;;;;;10.46;55.28;102319.34;1915281;75;21030;-58
2022/12/21 09:26:20;;;;;;;32.30;12.65;;;;;;;9.72;56.64;102316.65;1915346;75;21071;-53
2022/12/21 09:28:49;;;;;;;30.88;13.08;;;;;;;9.11;57.39;102311.09;1915309;75;21035;-62
2022/12/21 09:31:23;;;;;;;35.30;12.93;;;;;;;8.58;58.42;102312.31;1913216;75;21036;-60
2022/12/21 09:33:53;;;;;;;31.93;13.08;;;;;;;8.15;59.04;102300.20;1909645;73;21052;-61
2022/12/21 09:36:22;;;;;;;38.58;13.58;;;;;;;7.79;59.62;102296.84;1897659;73;21047;-60
2022/12/21 09:38:51;;;;;;;34.45;12.93;;;;;;;7.58;60.00;102300.39;1915953;75;21105;-60
2022/12/21 09:41:22;;;;;;;35.92;13.48;;;;;;;7.35;60.44;102301.27;1901858;75;21043;-60
2022/12/21 09:44:12;;;;;;;36.93;13.65;;;;;;;7.28;60.95;102287.73;1908326;75;21037;-60
2022/12/21 09:46:43;;;;;;;50.55;14.15;;;;;;;7.30;60.63;102281.19;1915342;75;21035;-60
2022/12/21 09:49:20;;;;;;;31.82;13.18;;;;;;;7.95;59.40;102277.11;1914563;75;21542;-60
2022/12/21 09:51:58;;;;;;;38.38;13.53;;;;;;;8.86;57.73;102284.98;1909815;75;21028;-61
2022/12/21 09:54:35;;;;;;;52.58;14.45;;;;;;;8.81;57.81;102288.52;1905861;75;21070;-60
2022/12/21 09:57:07;;;;;;;52.60;13.62;;;;;;;8.47;58.64;102284.35;1913939;75;21090;-60
2022/12/21 09:59:36;;;;;;;35.85;13.83;;;;;;;8.09;59.36;102282.74;1909282;75;21045;-61
2022/12/21 10:02:29;;;;;;;44.38;12.93;;;;;;;7.73;59.92;102289.86;1908182;75;21031;-63
2022/12/21 10:05:17;;;;;;;31.93;13.48;;;;;;;7.50;60.55;102287.27;1902897;75;21105;-60
2022/12/21 10:07:51;;;;;;;34.48;12.63;;;;;;;7.29;61.25;102284.25;1894455;75;21043;-56
2022/12/21 10:10:26;;;;;;;37.50;12.30;;;;;;;7.22;61.35;102282.50;1905636;75;21039;-58
2022/12/21 10:12:57;;;;;;;29.63;12.05;;;;;;;7.09;61.33;102277.70;1916198;73;21060;-57
2022/12/21 10:15:47;;;;;;;38.25;12.98;;;;;;;7.05;61.46;102281.65;1903663;73;20992;-58
2022/12/21 10:18:21;;;;;;;29.37;10.82;;;;;;;7.01;61.45;102280.77;1925748;74;21521;-55
2022/12/21 10:20:54;;;;;;;39.58;12.18;;;;;;;7.02;61.48;102285.12;1925669;74;21035;-58
2022/12/21 10:23:29;;;;;;;56.77;19.27;;;;;;;7.01;61.35;102289.04;1924052;73;21020;-56
2022/12/21 10:26:03;;;;;;;60.73;19.60;;;;;;;7.03;61.50;102289.95;1909434;73;21039;-61
2022/12/21 10:28:50;;;;;;;63.80;20.05;;;;;;;6.95;61.60;102282.95;1884369;76;21145;-61
2022/12/21 10:31:33;;;;;;;54.20;20.10;;;;;;;6.79;61.63;102281.19;1899263;73;21031;-72
2022/12/21 10:34:04;;;;;;;53.25;17.85;;;;;;;6.65;61.81;102284.20;1896681;75;21086;-63
2022/12/21 10:36:38;;;;;;;52.45;19.55;;;;;;;6.52;61.94;102276.32;1900351;75;21066;-65
2022/12/21 10:39:06;;;;;;;;;;;;;;;6.44;62.01;102264.97;1900772;75;21062;-63
2022/12/21 10:41:37;;;;;;;46.35;18.37;;;;;;;6.37;62.00;102265.83;1898805;75;20099;-59
2022/12/21 10:44:06;;;;;;;57.48;19.82;;;;;;;6.27;62.09;102271.88;1903569;75;21133;-69
2022/12/21 10:46:37;;;;;;;46.25;15.83;;;;;;;6.21;62.23;102267.95;1892302;75;21109;-64
2022/12/21 10:49:17;;;;;;;45.40;17.85;;;;;;;6.18;62.38;102263.59;1893613;75;21105;-68
2022/12/21 10:51:46;;;;;;;47.48;17.15;;;;;;;6.08;62.61;102261.36;1892922;75;21124;-61
2022/12/21 10:54:16;;;;;;;45.63;15.68;;;;;;;6.06;62.68;102269.63;1915252;75;21133;-60
2022/12/21 10:56:50;;;;;;;47.78;17.10;;;;;;;6.05;62.71;102261.77;1893940;75;21120;-61
2022/12/21 10:59:30;;;;;;;49.00;15.53;;;;;;;6.05;62.76;102263.98;1893011;75;21239;-63
2022/12/21 11:01:59;;;;;;;50.35;17.17;;;;;;;6.05;62.88;102261.36;1896577;74;21043;-63
2022/12/21 11:04:32;;;;;;;46.92;16.67;;;;;;;6.07;62.84;102259.63;1906021;73;21091;-56
2022/12/21 11:07:20;;;;;;;40.45;13.53;;;;;;;6.11;62.82;102257.45;1904107;75;21208;-61
2022/12/21 11:09:58;;;;;;;35.38;11.88;;;;;;;6.11;62.73;102260.06;1888345;75;21200;-60
2022/12/21 11:12:28;;;;;;;42.65;13.58;;;;;;;6.03;62.73;102243.91;1911358;74;21133;-61
2022/12/21 11:14:57;;;;;;;43.52;12.68;;;;;;;5.92;62.81;102242.52;1934036;74;21121;-60
2022/12/21 11:17:28;;;;;;;52.13;14.83;;;;;;;5.82;63.04;102242.91;1930667;74;21116;-62
2022/12/21 11:20:09;;;;;;;45.35;15.50;;;;;;;5.85;63.07;102242.07;1914037;74;21136;-66
2022/12/21 11:22:41;;;;;;;41.18;13.75;;;;;;;6.16;62.65;102241.34;1918178;74;21738;-61
2022/12/21 11:25:19;;;;;;;41.35;14.83;;;;;;;6.60;61.83;102242.75;1915445;74;21050;-61
2022/12/21 11:27:51;;;;;;;42.90;14.07;;;;;;;6.99;61.09;102238.41;1910908;74;21517;-60
2022/12/21 11:30:22;;;;;;;41.23;12.00;;;;;;;7.41;60.22;102238.80;1904639;74;21169;-61
2022/12/21 11:32:54;;;;;;;53.60;13.62;;;;;;;7.59;59.79;102239.20;1912758;74;21109;-66
2022/12/21 11:35:34;;;;;;;45.50;13.90;;;;;;;7.60;59.79;102237.45;1908483;74;21153;-60
2022/12/21 11:38:10;;;;;;;35.73;14.40;;;;;;;7.63;59.79;102235.69;1904187;74;21047;-60
2022/12/21 11:40:39;;;;;;;56.92;12.65;;;;;;;7.58;60.12;102238.79;1933695;74;21121;-60
2022/12/21 11:43:18;;;;;;;47.78;16.48;;;;;;;7.46;60.37;102230.50;1909927;74;21167;-60
2022/12/21 11:46:01;;;;;;;67.67;26.55;;;;;;;7.95;59.41;102224.66;1927587;74;21465;-61
2022/12/21 11:48:38;;;;;;;52.27;18.12;;;;;;;9.05;57.11;102232.28;1928864;74;21006;-61
2022/12/21 11:51:22;;;;;;;70.90;19.95;;;;;;;10.00;55.05;102222.52;1912574;74;21452;-60
2022/12/21 11:54:03;;;;;;;46.70;14.90;;;;;;;10.20;54.61;102220.94;1908543;74;21140;-62
2022/12/21 11:56:35;;;;;;;42.60;15.25;;;;;;;10.76;53.68;102219.23;1912089;74;21160;-60